Time;durP1;ratioP1;P1;durP2;ratioP2;P2;SDS_P1;SDS_P2;PMS_P1;PMS_P2;Temp;Humidity;BMP_temperature;BMP_pressure;BME280_temperature;BME280_humidity;BME280_pressure;Samples;Min_cycle;Max_cycle;Signal;HPM_P1;HPM_P2
2022/08/31 00:06:01;;;;;;;26.48;18.40;;;;;;;21.48;62.10;99229.91;5012804;28;20091;-87
2022/08/31 00:08:28;;;;;;;22.80;16.05;;;;;;;21.55;62.08;99229.03;5000530;28;20038;-87
2022/08/31 00:10:54;;;;;;;23.30;18.23;;;;;;;21.67;61.45;99234.28;4996792;28;20028;-87
2022/08/31 00:13:24;;;;;;;21.92;16.48;;;;;;;21.57;61.64;99226.59;5013255;28;20029;-87
2022/08/31 00:15:51;;;;;;;26.70;16.30;;;;;;;21.64;61.65;99220.84;4995731;28;20037;-87
2022/08/31 00:18:18;;;;;;;32.20;17.90;;;;;;;21.72;61.31;99222.47;5013793;28;20092;-87
2022/08/31 00:20:45;;;;;;;24.13;16.90;;;;;;;21.92;60.94;99223.94;4995761;28;20417;-88
2022/08/31 00:23:13;;;;;;;26.60;17.10;;;;;;;21.96;60.44;99208.44;4996380;28;20116;-87
2022/08/31 00:25:41;;;;;;;21.83;16.23;;;;;;;22.00;60.58;99217.75;4995366;28;20041;-87
2022/08/31 00:28:08;;;;;;;26.25;17.45;;;;;;;22.13;59.97;99223.75;4996342;28;20029;-87
2022/08/31 00:30:34;;;;;;;28.90;16.17;;;;;;;21.94;60.05;99201.56;4996394;28;20096;-87
2022/08/31 00:33:00;;;;;;;26.55;17.27;;;;;;;21.91;60.42;99222.31;4996117;28;20026;-87
2022/08/31 00:35:27;;;;;;;25.13;16.67;;;;;;;21.79;60.40;99220.78;4995401;28;20491;-87
2022/08/31 00:37:53;;;;;;;23.58;17.40;;;;;;;21.77;60.44;99223.25;5013828;28;20033;-88
2022/08/31 00:40:19;;;;;;;24.85;16.38;;;;;;;21.45;60.49;99176.69;4996022;28;20034;-87
2022/08/31 00:42:45;;;;;;;18.70;15.57;;;;;;;21.92;60.16;99219.03;4995730;28;20084;-88
2022/08/31 00:45:11;;;;;;;27.23;16.17;;;;;;;22.02;58.98;99223.84;4995747;28;20033;-88
2022/08/31 00:47:37;;;;;;;19.95;15.38;;;;;;;21.92;59.44;99226.78;4996102;28;20026;-87
2022/08/31 00:50:05;;;;;;;22.17;16.33;;;;;;;21.74;60.57;99217.16;4995599;28;20029;-87
2022/08/31 00:52:34;;;;;;;23.73;15.43;;;;;;;21.40;61.65;99222.63;4976622;28;20089;-87
2022/08/31 00:55:08;;;;;;;19.23;16.13;;;;;;;21.46;61.65;99235.19;4993877;28;20134;-87
2022/08/31 00:57:38;;;;;;;20.90;14.40;;;;;;;21.18;62.42;99228.44;4988714;28;20040;-87
2022/08/31 01:00:09;;;;;;;29.75;17.70;;;;;;;21.03;63.53;99239.84;4995021;28;20022;-88
2022/08/31 01:02:35;;;;;;;22.17;17.60;;;;;;;21.10;63.02;99230.50;4995837;28;20030;-87
2022/08/31 01:05:01;;;;;;;21.65;16.58;;;;;;;21.27;62.92;99242.22;4995692;28;20497;-87
2022/08/31 01:07:27;;;;;;;25.85;15.55;;;;;;;21.40;62.04;99243.34;4995867;28;20028;-87
2022/08/31 01:09:54;;;;;;;19.02;15.45;;;;;;;21.61;61.22;99233.06;5013122;28;20022;-87
2022/08/31 01:12:20;;;;;;;26.85;17.88;;;;;;;21.23;62.05;99230.84;4995025;28;20041;-87
2022/08/31 01:14:46;;;;;;;26.98;16.02;;;;;;;21.01;63.05;99235.84;4994727;28;20140;-88
2022/08/31 01:17:11;;;;;;;22.55;17.27;;;;;;;20.89;63.39;99235.06;4995659;28;20033;-87
2022/08/31 01:19:39;;;;;;;22.63;16.85;;;;;;;20.74;63.75;99233.44;4995563;28;20022;-87
2022/08/31 01:22:34;;;;;;;23.17;17.45;;;;;;;20.50;65.72;99229.44;4995456;28;20032;-87
2022/08/31 01:25:00;;;;;;;25.75;17.25;;;;;;;20.42;65.74;99229.44;4995307;28;20036;-87
2022/08/31 01:27:31;;;;;;;23.25;18.17;;;;;;;20.43;66.11;99231.06;4995479;28;20057;-87
2022/08/31 01:30:02;;;;;;;27.52;18.35;;;;;;;20.45;65.75;99214.47;4995147;28;20073;-87
2022/08/31 01:32:28;;;;;;;24.60;18.88;;;;;;;20.24;66.41;99223.81;4990301;28;20025;-87
2022/08/31 01:34:53;;;;;;;28.08;19.38;;;;;;;20.17;66.97;99224.63;4986981;28;20061;-87
2022/08/31 01:37:19;;;;;;;25.30;18.95;;;;;;;19.85;67.58;99193.38;4995143;28;20057;-87
2022/08/31 01:39:44;;;;;;;33.25;20.73;;;;;;;19.77;68.39;99207.56;4995108;28;20532;-87
2022/08/31 01:42:10;;;;;;;30.30;21.48;;;;;;;19.89;68.86;99223.38;4994892;28;20046;-87
2022/08/31 01:44:36;;;;;;;28.35;20.65;;;;;;;19.52;69.17;99170.69;4993175;28;20026;-87
2022/08/31 01:47:01;;;;;;;26.35;20.10;;;;;;;19.83;69.50;99215.69;4994645;28;20456;-87
2022/08/31 01:49:27;;;;;;;30.20;21.70;;;;;;;19.71;69.57;99217.69;4994846;28;20025;-87
2022/08/31 01:51:53;;;;;;;30.58;20.77;;;;;;;19.61;70.14;99209.97;5012585;28;20100;-86
2022/08/31 01:54:21;;;;;;;29.35;20.35;;;;;;;19.68;70.24;99218.50;4994875;28;20485;-87
2022/08/31 01:56:47;;;;;;;23.50;19.17;;;;;;;19.78;69.67;99214.06;4994840;28;20021;-86
2022/08/31 01:59:14;;;;;;;31.00;21.48;;;;;;;19.95;69.09;99206.78;4990571;28;20037;-87
2022/08/31 02:01:43;;;;;;;30.48;20.30;;;;;;;19.63;69.63;99176.34;4975315;28;20029;-87
2022/08/31 02:04:11;;;;;;;29.10;19.77;;;;;;;20.09;69.18;99216.53;4992587;28;20034;-87
2022/08/31 02:06:39;;;;;;;22.25;19.08;;;;;;;20.08;67.97;99183.69;4978681;28;20025;-87
2022/08/31 02:09:06;;;;;;;27.30;20.60;;;;;;;20.24;68.46;99214.50;4994482;28;20018;-87
2022/08/31 02:11:32;;;;;;;24.92;17.85;;;;;;;20.09;67.98;99188.13;4993796;28;20026;-87
2022/08/31 02:13:57;;;;;;;25.17;19.83;;;;;;;20.19;68.33;99196.63;5011409;28;20025;-87
2022/08/31 02:16:23;;;;;;;24.17;20.23;;;;;;;19.89;69.84;99214.06;4994387;28;20030;-87
2022/08/31 02:18:49;;;;;;;29.50;20.23;;;;;;;19.70;70.13;99184.06;4994524;28;20089;-87
2022/08/31 02:21:15;;;;;;;27.52;19.75;;;;;;;19.76;70.49;99207.97;4994260;28;20048;-87
2022/08/31 02:23:41;;;;;;;27.33;21.75;;;;;;;19.96;69.63;99219.78;4994552;28;20485;-87
2022/08/31 02:26:08;;;;;;;29.33;19.33;;;;;;;20.16;68.47;99202.34;4994288;28;20026;-87
2022/08/31 02:28:34;;;;;;;26.58;20.45;;;;;;;20.43;67.42;99218.91;4992948;28;20033;-87
2022/08/31 02:30:59;;;;;;;26.52;17.98;;;;;;;20.59;66.53;99210.75;4994286;28;20113;-87
2022/08/31 02:33:25;;;;;;;24.13;18.30;;;;;;;20.81;65.75;99215.56;4994425;28;20026;-87
2022/08/31 02:35:51;;;;;;;33.80;19.70;;;;;;;20.87;65.32;99217.59;4994160;28;20032;-87
2022/08/31 02:38:16;;;;;;;22.60;17.25;;;;;;;20.82;64.67;99195.28;5011715;28;20026;-87
2022/08/31 02:40:42;;;;;;;31.77;18.90;;;;;;;20.66;64.79;99211.97;4993909;28;20072;-87
2022/08/31 02:43:09;;;;;;;25.17;17.95;;;;;;;20.74;65.15;99205.03;4992275;28;20051;-87
2022/08/31 02:45:36;;;;;;;24.85;17.98;;;;;;;20.65;64.95;99201.81;4993232;28;20034;-87
2022/08/31 02:48:07;;;;;;;20.55;17.23;;;;;;;20.54;65.18;99190.47;4993992;28;20594;-87
2022/08/31 02:50:33;;;;;;;27.90;18.52;;;;;;;20.71;64.97;99215.19;4994119;28;20030;-87
2022/08/31 02:52:59;;;;;;;26.00;18.92;;;;;;;20.61;65.62;99199.78;5011579;28;20064;-87
2022/08/31 02:55:26;;;;;;;25.55;18.40;;;;;;;20.42;65.93;99200.25;4993395;28;20026;-87
2022/08/31 02:57:52;;;;;;;24.48;16.40;;;;;;;20.25;66.35;99197.03;4993066;28;20022;-87
2022/08/31 03:00:20;;;;;;;33.60;17.92;;;;;;;20.43;65.93;99190.50;4993721;28;20030;-88
2022/08/31 03:02:47;;;;;;;25.48;17.27;;;;;;;20.69;65.30;99185.56;4993842;28;20432;-87
2022/08/31 03:05:12;;;;;;;24.27;17.75;;;;;;;20.89;64.65;99205.81;4993407;28;20112;-87
2022/08/31 03:07:39;;;;;;;25.23;16.52;;;;;;;20.90;64.68;99201.75;4993943;28;20176;-87
2022/08/31 03:10:07;;;;;;;22.38;17.52;;;;;;;20.81;64.59;99187.97;4993768;28;20026;-87
2022/08/31 03:12:33;;;;;;;36.40;18.23;;;;;;;20.73;64.00;99160.78;4993475;28;20022;-87
2022/08/31 03:14:59;;;;;;;27.90;18.05;;;;;;;20.73;64.63;99190.03;4993049;28;20029;-87
2022/08/31 03:17:24;;;;;;;23.83;15.95;;;;;;;20.52;64.48;99164.50;4993627;28;20030;-87
2022/08/31 03:19:50;;;;;;;26.33;17.48;;;;;;;20.75;63.87;99187.56;4992064;28;20349;-87
2022/08/31 03:22:15;;;;;;;24.50;16.48;;;;;;;20.56;63.70;99151.91;4993743;28;20096;-87
2022/08/31 03:24:42;;;;;;;34.35;19.58;;;;;;;20.88;63.58;99175.78;4993708;28;20030;-87
2022/08/31 03:27:08;;;;;;;31.88;17.23;;;;;;;21.10;63.14;99187.03;4993558;28;20026;-87
2022/08/31 03:29:35;;;;;;;26.08;16.65;;;;;;;21.21;63.18;99192.66;5011380;28;20108;-87
2022/08/31 03:32:01;;;;;;;20.67;15.65;;;;;;;21.15;63.06;99189.44;4993600;28;20477;-87
2022/08/31 03:34:26;;;;;;;27.92;18.27;;;;;;;20.43;64.93;99196.19;4993210;28;20026;-87
2022/08/31 03:36:52;;;;;;;23.33;17.88;;;;;;;20.33;65.73;99200.66;4993258;28;20437;-87
2022/08/31 03:39:17;;;;;;;34.08;19.60;;;;;;;20.15;66.18;99192.16;4993651;28;20088;-87
2022/08/31 03:41:43;;;;;;;30.38;18.88;;;;;;;19.88;67.00;99186.91;4992432;28;20136;-87
2022/08/31 03:44:08;;;;;;;29.80;20.23;;;;;;;19.82;67.35;99200.66;4992698;28;20130;-87
2022/08/31 03:46:34;;;;;;;31.10;18.83;;;;;;;19.70;68.05;99196.22;4993635;28;20046;-88
2022/08/31 03:49:01;;;;;;;28.20;19.45;;;;;;;19.72;67.97;99176.75;5011168;28;20535;-87
2022/08/31 03:51:27;;;;;;;34.75;19.67;;;;;;;19.67;68.42;99182.03;4993410;28;20025;-87
2022/08/31 03:53:53;;;;;;;30.05;19.33;;;;;;;19.62;68.28;99188.91;4992816;28;20025;-87
2022/08/31 03:56:19;;;;;;;27.60;20.02;;;;;;;19.69;68.56;99194.59;4993421;28;20394;-87
2022/08/31 03:58:45;;;;;;;38.83;21.02;;;;;;;19.81;68.04;99206.78;5009813;28;20029;-87
2022/08/31 04:01:12;;;;;;;28.95;18.02;;;;;;;19.65;68.53;99205.13;5010917;28;20394;-87
2022/08/31 04:03:37;;;;;;;35.53;19.67;;;;;;;19.70;68.56;99212.41;4993450;28;20026;-87
2022/08/31 04:06:07;;;;;;;26.55;20.20;;;;;;;19.66;68.58;99209.56;4993319;28;20022;-87
2022/08/31 04:08:33;;;;;;;34.03;18.27;;;;;;;19.67;68.63;99208.38;4993151;28;20029;-86
2022/08/31 04:10:59;;;;;;;29.85;19.45;;;;;;;19.74;68.06;99190.56;4997194;28;20503;-86
2022/08/31 04:16:21;;;;;;;27.17;17.95;;;;;;;20.01;67.32;99196.66;5367770;23;20071;-87
2022/08/31 04:18:46;;;;;;;30.02;17.58;;;;;;;20.06;67.59;99207.59;4993722;28;20420;-88
2022/08/31 04:21:19;;;;;;;28.58;18.52;;;;;;;20.04;68.00;99210.03;4977549;28;20038;-87
2022/08/31 04:23:45;;;;;;;24.50;17.65;;;;;;;20.14;67.75;99207.59;4986163;28;20025;-88
2022/08/31 04:26:16;;;;;;;38.25;19.65;;;;;;;19.99;68.29;99201.13;4996694;28;20116;-88
2022/08/31 04:28:42;;;;;;;33.15;19.73;;;;;;;19.94;68.21;99196.66;4995932;28;20078;-88
2022/08/31 04:31:08;;;;;;;33.25;19.95;;;;;;;19.89;68.31;99199.88;4997225;28;20059;-87
2022/08/31 04:33:38;;;;;;;31.17;17.33;;;;;;;19.85;67.24;99197.03;4996442;28;20057;-88
2022/08/31 04:36:14;;;;;;;;;;;;;;;20.03;67.41;99213.28;4997527;28;20036;-89
2022/08/31 04:38:45;;;;;;;28.48;18.15;;;;;;;20.13;67.15;99215.31;4997004;28;19909;-87
2022/08/31 04:41:13;;;;;;;27.25;16.95;;;;;;;19.99;67.62;99210.44;4996993;28;20037;-88
2022/08/31 04:43:43;;;;;;;23.23;17.40;;;;;;;19.68;67.46;99158.13;4991943;28;20117;-88
2022/08/31 04:46:08;;;;;;;26.95;18.27;;;;;;;19.77;67.54;99170.69;4977227;28;20064;-88
2022/08/31 04:48:35;;;;;;;47.72;18.63;;;;;;;20.10;67.31;99209.63;4977249;28;20116;-87
2022/08/31 04:51:06;;;;;;;25.30;17.83;;;;;;;19.96;67.22;99180.03;4976979;28;20052;-88
2022/08/31 04:53:32;;;;;;;29.58;18.05;;;;;;;20.05;67.00;99174.75;4993152;28;20025;-88
2022/08/31 04:56:12;;;;;;;24.77;15.43;;;;;;;20.33;66.81;99204.31;4996318;28;20124;-88
2022/08/31 04:58:38;;;;;;;22.95;17.33;;;;;;;20.32;66.58;99211.22;4996111;28;20092;-88
2022/08/31 05:01:08;;;;;;;25.88;17.60;;;;;;;20.44;66.44;99206.34;4995560;28;20029;-88
2022/08/31 05:03:36;;;;;;;25.38;17.38;;;;;;;20.27;65.88;99163.38;5013458;28;20037;-88
2022/08/31 05:06:03;;;;;;;26.02;16.58;;;;;;;20.35;65.60;99155.66;5014018;28;20065;-88
2022/08/31 05:08:29;;;;;;;29.17;16.33;;;;;;;20.81;64.91;99202.19;4996364;28;20057;-90
2022/08/31 05:10:55;;;;;;;26.02;15.27;;;;;;;20.99;63.61;99192.78;4995384;28;20052;-88
2022/08/31 05:13:20;;;;;;;23.23;14.40;;;;;;;21.18;61.94;99200.00;4995469;28;20065;-88
2022/08/31 05:15:46;;;;;;;27.25;13.73;;;;;;;21.40;61.11;99200.69;5013013;28;20030;-88
2022/08/31 05:18:11;;;;;;;18.70;14.32;;;;;;;21.51;60.59;99194.13;5012894;28;20634;-89
2022/08/31 05:20:39;;;;;;;23.02;13.90;;;;;;;21.70;60.61;99207.03;4988059;28;20099;-88
2022/08/31 05:23:04;;;;;;;16.92;13.35;;;;;;;21.80;60.02;99200.44;4996314;28;20030;-89
2022/08/31 05:25:30;;;;;;;21.67;14.75;;;;;;;22.00;60.18;99202.69;4996347;28;20033;-89
2022/08/31 05:27:56;;;;;;;19.67;14.35;;;;;;;21.98;60.01;99190.94;4992368;28;20412;-89
2022/08/31 05:30:22;;;;;;;23.65;13.85;;;;;;;22.01;59.93;99184.38;4995850;28;20037;-89
2022/08/31 05:32:47;;;;;;;16.02;13.35;;;;;;;22.01;59.80;99185.22;4994037;28;20481;-91
2022/08/31 05:35:14;;;;;;;22.75;13.60;;;;;;;21.73;59.29;99143.56;4994576;28;20061;-90
2022/08/31 05:37:39;;;;;;;18.83;13.23;;;;;;;22.05;58.67;99181.50;4994226;28;20036;-89
2022/08/31 05:40:06;;;;;;;21.88;13.95;;;;;;;22.20;58.29;99197.22;4991587;28;20486;-88
2022/08/31 05:42:33;;;;;;;26.35;13.60;;;;;;;22.17;58.24;99189.53;4994095;28;20030;-89
2022/08/31 05:44:58;;;;;;;15.27;13.07;;;;;;;22.26;57.98;99178.47;4995716;28;20026;-89
2022/08/31 05:47:24;;;;;;;18.35;12.73;;;;;;;22.29;57.53;99180.47;4995617;28;20092;-89
2022/08/31 05:49:49;;;;;;;24.00;12.43;;;;;;;22.36;56.59;99165.34;4995175;28;20045;-89
2022/08/31 05:52:15;;;;;;;15.70;11.82;;;;;;;22.48;57.10;99158.31;4995013;28;20029;-89
2022/08/31 05:54:41;;;;;;;24.20;12.95;;;;;;;22.60;56.84;99145.56;4992588;28;20025;-89
2022/08/31 05:57:06;;;;;;;15.27;12.10;;;;;;;22.92;56.20;99174.88;4992813;28;20036;-87
2022/08/31 05:59:33;;;;;;;17.25;12.88;;;;;;;23.03;56.22;99172.72;4995462;28;20029;-88
2022/08/31 06:02:00;;;;;;;16.20;11.63;;;;;;;22.97;54.23;99141.00;4995386;28;20361;-88
2022/08/31 06:04:27;;;;;;;18.25;12.77;;;;;;;23.26;54.29;99183.41;4989817;28;20093;-88
2022/08/31 06:06:53;;;;;;;17.33;12.07;;;;;;;23.23;54.07;99177.75;4994370;28;20095;-88
2022/08/31 06:09:19;;;;;;;16.13;10.80;;;;;;;23.36;53.93;99183.72;4994838;28;20045;-88
2022/08/31 06:11:45;;;;;;;13.02;11.68;;;;;;;23.44;52.76;99184.41;4995447;28;20033;-88
2022/08/31 06:14:11;;;;;;;19.67;11.57;;;;;;;23.41;50.82;99192.59;4994549;28;20038;-88
2022/08/31 06:16:37;;;;;;;19.75;11.85;;;;;;;23.25;51.15;99183.81;4994789;28;20046;-88
2022/08/31 06:19:06;;;;;;;15.50;10.93;;;;;;;23.23;51.96;99189.97;4981785;28;20401;-88
2022/08/31 06:21:35;;;;;;;16.25;11.48;;;;;;;23.23;51.88;99169.19;4985566;28;20034;-89
2022/08/31 06:24:04;;;;;;;14.95;10.88;;;;;;;23.19;52.03;99172.09;4994133;28;20462;-87
2022/08/31 06:26:33;;;;;;;15.68;10.85;;;;;;;23.31;52.42;99167.06;4990390;28;20631;-87
2022/08/31 06:29:03;;;;;;;16.08;11.02;;;;;;;23.47;51.71;99175.81;4958975;28;20448;-87
2022/08/31 06:31:37;;;;;;;16.52;12.73;;;;;;;23.62;51.97;99182.09;5006254;28;20049;-88
2022/08/31 06:34:05;;;;;;;15.77;11.43;;;;;;;23.62;51.59;99167.81;4983011;28;20078;-86
2022/08/31 06:36:32;;;;;;;29.33;12.73;;;;;;;23.89;51.97;99177.59;4989835;28;20045;-86
2022/08/31 06:39:00;;;;;;;17.98;11.48;;;;;;;24.07;51.17;99183.03;4993925;28;20072;-86
2022/08/31 06:41:31;;;;;;;16.10;10.50;;;;;;;24.25;50.75;99174.13;5011524;28;20050;-86
2022/08/31 06:44:11;;;;;;;16.50;11.82;;;;;;;24.32;50.90;99164.63;5011509;28;20037;-86
2022/08/31 06:46:38;;;;;;;23.15;11.82;;;;;;;24.58;49.81;99173.50;4994255;28;20121;-86
2022/08/31 06:49:05;;;;;;;21.15;11.25;;;;;;;24.59;48.72;99175.13;5011889;28;20160;-86
2022/08/31 06:51:35;;;;;;;16.27;11.13;;;;;;;24.56;49.09;99173.13;4993866;28;20401;-85
2022/08/31 06:54:02;;;;;;;17.20;10.73;;;;;;;24.67;49.33;99163.09;4994126;28;20022;-86
2022/08/31 06:56:28;;;;;;;16.73;11.27;;;;;;;25.01;49.94;99177.56;4993942;28;20091;-86
2022/08/31 06:58:53;;;;;;;15.98;11.20;;;;;;;25.07;48.29;99150.84;4993171;28;20014;-85
2022/08/31 07:01:22;;;;;;;15.35;10.52;;;;;;;25.34;48.13;99169.88;5010405;28;20029;-85
2022/08/31 07:03:49;;;;;;;20.77;12.57;;;;;;;25.41;46.91;99156.66;5011150;28;20041;-85
2022/08/31 07:06:20;;;;;;;23.83;11.65;;;;;;;25.63;45.93;99169.22;4993827;28;20401;-87
2022/08/31 07:08:47;;;;;;;14.55;10.05;;;;;;;25.75;43.84;99178.38;4993205;28;20053;-87
2022/08/31 07:11:16;;;;;;;15.18;9.85;;;;;;;25.78;43.54;99163.13;4993566;28;20045;-86
2022/08/31 07:13:42;;;;;;;12.00;10.10;;;;;;;25.93;43.77;99169.31;4992869;28;20061;-86
2022/08/31 07:16:11;;;;;;;12.07;8.93;;;;;;;26.10;42.54;99167.25;4993761;28;20069;-87
2022/08/31 07:18:38;;;;;;;28.05;10.43;;;;;;;26.18;42.94;99174.41;4993408;28;20064;-85
2022/08/31 07:21:08;;;;;;;16.08;10.60;;;;;;;26.35;42.83;99177.25;4991998;28;20053;-85
2022/08/31 07:23:34;;;;;;;16.85;9.48;;;;;;;26.26;42.84;99168.50;4988537;28;20051;-85
2022/08/31 07:26:06;;;;;;;14.50;9.27;;;;;;;26.52;43.62;99175.16;4990055;28;20428;-85
2022/08/31 07:28:32;;;;;;;25.13;11.13;;;;;;;26.59;43.18;99157.75;4990346;28;20034;-86
2022/08/31 07:30:59;;;;;;;16.90;9.18;;;;;;;26.76;41.24;99149.88;4990074;28;20033;-86
2022/08/31 07:33:25;;;;;;;16.73;8.95;;;;;;;26.85;41.17;99157.03;4990135;28;20087;-86
2022/08/31 07:35:50;;;;;;;12.05;8.98;;;;;;;27.07;40.26;99170.75;4991058;28;20030;-86
2022/08/31 07:43:47;;;;;;;8.68;7.68;;;;;;;27.12;39.73;99158.69;5010420;28;20412;-87
2022/08/31 07:46:18;;;;;;;10.13;7.85;;;;;;;27.05;39.48;99154.81;4995403;28;20117;-87
2022/08/31 07:48:44;;;;;;;16.58;8.90;;;;;;;26.81;40.06;99154.25;5012517;28;20564;-86
2022/08/31 07:51:10;;;;;;;12.82;8.77;;;;;;;27.06;40.04;99149.84;5011864;28;20108;-86
2022/08/31 07:53:43;;;;;;;11.98;9.02;;;;;;;27.15;39.71;99160.66;4994457;28;20448;-87
2022/08/31 07:56:09;;;;;;;13.70;9.70;;;;;;;27.06;40.25;99144.13;4995075;28;20026;-87
2022/08/31 07:58:36;;;;;;;14.35;8.20;;;;;;;27.29;41.10;99136.44;4994598;28;20480;-86
2022/08/31 08:01:02;;;;;;;13.30;8.57;;;;;;;27.49;41.07;99144.81;4994002;28;20108;-86
2022/08/31 08:03:28;;;;;;;17.27;9.20;;;;;;;27.28;40.16;99147.13;4993524;28;20022;-86
2022/08/31 08:05:54;;;;;;;16.05;10.23;;;;;;;27.63;40.88;99142.78;4994251;28;20018;-86
2022/08/31 08:08:21;;;;;;;12.13;9.75;;;;;;;27.87;40.87;99149.78;4995553;28;20022;-87
2022/08/31 08:10:47;;;;;;;13.20;9.05;;;;;;;27.91;40.09;99120.91;4996102;28;20022;-87
2022/08/31 08:13:15;;;;;;;11.02;9.02;;;;;;;28.14;40.11;99144.75;4995539;28;20029;-86
2022/08/31 08:15:41;;;;;;;13.97;9.43;;;;;;;28.28;39.41;99137.72;4953737;28;1188411;-86
2022/08/31 08:18:06;;;;;;;13.25;8.82;;;;;;;28.22;39.45;99139.56;4997265;28;20492;-86
2022/08/31 08:20:33;;;;;;;14.90;10.15;;;;;;;28.38;39.53;99144.34;4996667;28;20463;-85
2022/08/31 08:22:59;;;;;;;12.20;8.45;;;;;;;28.47;39.32;99129.22;4996819;28;20084;-87
2022/08/31 08:25:24;;;;;;;11.90;8.70;;;;;;;28.63;38.91;99131.13;4996314;28;20026;-86
2022/08/31 08:27:54;;;;;;;16.65;8.77;;;;;;;28.52;38.79;99099.88;5014008;28;20036;-87
2022/08/31 08:30:19;;;;;;;12.68;7.82;;;;;;;28.62;38.62;99109.38;4996742;28;20116;-86
2022/08/31 08:32:46;;;;;;;15.85;7.57;;;;;;;28.68;38.45;99116.94;4996174;28;20025;-86
2022/08/31 08:35:12;;;;;;;18.85;13.65;;;;;;;28.84;39.05;99113.06;4996604;28;20420;-87
2022/08/31 08:37:40;;;;;;;17.58;7.88;;;;;;;28.87;37.94;99108.47;4996592;28;20026;-86
2022/08/31 08:40:12;;;;;;;15.27;8.25;;;;;;;29.01;38.30;99107.06;4996159;28;20021;-84
2022/08/31 08:42:37;;;;;;;10.25;8.50;;;;;;;29.08;37.42;99097.34;4996396;28;20479;-87
2022/08/31 08:45:03;;;;;;;15.05;8.50;;;;;;;29.04;36.85;99109.03;4995335;28;20021;-87
2022/08/31 08:47:35;;;;;;;15.73;8.63;;;;;;;29.15;36.82;99108.59;4996310;28;20567;-85
2022/08/31 08:50:05;;;;;;;16.95;9.20;;;;;;;29.32;37.50;99108.31;4996220;28;20022;-84
2022/08/31 08:52:42;;;;;;;19.25;8.82;;;;;;;29.38;37.03;99106.44;4995331;28;20014;-85
2022/08/31 08:55:15;;;;;;;14.65;8.35;;;;;;;29.33;37.18;99107.88;4995931;28;20037;-86
2022/08/31 08:57:43;;;;;;;13.05;8.30;;;;;;;29.51;36.33;99104.28;4996189;28;20109;-85
2022/08/31 09:00:16;;;;;;;13.63;8.52;;;;;;;29.41;36.39;99105.50;4995646;28;20080;-86
2022/08/31 09:02:54;;;;;;;10.38;8.77;;;;;;;29.63;36.17;99107.50;4996095;28;20484;-86
2022/08/31 09:05:48;;;;;;;16.40;9.35;;;;;;;29.54;36.27;99105.41;4995771;28;20389;-85
2022/08/31 09:08:31;;;;;;;12.55;8.48;;;;;;;29.69;35.80;99106.41;4995059;28;20451;-84
2022/08/31 09:11:16;;;;;;;11.27;7.65;;;;;;;29.79;35.25;99101.47;4995407;28;20095;-88
2022/08/31 09:14:18;;;;;;;13.38;8.52;;;;;;;29.97;35.46;99097.00;4995430;28;20033;-89
2022/08/31 09:17:15;;;;;;;11.45;8.43;;;;;;;29.73;35.72;99097.63;4974828;28;20138;-88
2022/08/31 09:20:00;;;;;;;11.30;8.18;;;;;;;30.11;36.05;99092.75;4976123;28;20077;-89
2022/08/31 09:22:54;;;;;;;12.98;9.15;;;;;;;30.12;34.71;99089.34;4990484;28;20061;-86
2022/08/31 09:25:31;;;;;;;9.85;7.55;;;;;;;30.20;34.69;99083.28;4987307;28;20405;-87
2022/08/31 09:27:59;;;;;;;20.73;8.13;;;;;;;30.10;34.04;99063.09;4995019;28;20412;-87
2022/08/31 09:30:49;;;;;;;11.60;7.47;;;;;;;30.36;34.66;99082.94;5013052;28;20060;-87
2022/08/31 09:33:28;;;;;;;21.42;9.43;;;;;;;30.43;34.06;99073.16;4995273;28;20386;-87
2022/08/31 09:36:21;;;;;;;14.07;7.97;;;;;;;30.51;33.20;99067.84;4995191;28;20030;-87
2022/08/31 09:38:47;;;;;;;14.15;8.32;;;;;;;30.29;32.94;99054.44;4995551;28;20412;-87
2022/08/31 09:41:28;;;;;;;13.85;8.73;;;;;;;30.55;33.24;99080.03;4995062;28;20060;-87
2022/08/31 09:44:14;;;;;;;14.85;7.95;;;;;;;30.67;33.21;99052.31;5012576;28;20408;-84
2022/08/31 09:46:50;;;;;;;10.90;7.82;;;;;;;30.89;33.24;99069.41;4994299;28;20029;-88
2022/08/31 09:49:25;;;;;;;10.57;7.75;;;;;;;30.88;32.34;99067.00;4994555;28;20033;-86
2022/08/31 09:51:51;;;;;;;18.00;7.97;;;;;;;30.69;32.49;99049.72;4995107;28;20034;-86
2022/08/31 09:57:57;;;;;;;15.38;7.90;;;;;;;31.03;33.24;99067.13;4911015;29;20586;-84
2022/08/31 10:00:40;;;;;;;10.18;7.93;;;;;;;31.14;32.34;99063.69;4904344;29;20040;-87
2022/08/31 10:03:17;;;;;;;11.45;8.05;;;;;;;31.36;32.62;99055.59;4974718;28;20045;-87
2022/08/31 10:05:43;;;;;;;16.65;7.70;;;;;;;31.22;31.80;99034.00;5012465;28;20065;-88
2022/08/31 10:08:56;;;;;;;16.35;8.85;;;;;;;31.33;32.40;99050.00;4994547;28;20452;-87
2022/08/31 10:11:25;;;;;;;14.10;8.20;;;;;;;31.27;32.60;99034.63;4994582;28;20480;-86
2022/08/31 10:13:59;;;;;;;14.27;8.80;;;;;;;31.40;33.16;99034.38;4977419;28;20041;-86
2022/08/31 10:16:47;;;;;;;20.08;8.07;;;;;;;31.46;32.28;99021.66;4994589;28;20559;-86
2022/08/31 10:19:19;;;;;;;11.27;8.68;;;;;;;31.27;31.78;99023.09;4994530;28;20129;-86
2022/08/31 10:21:52;;;;;;;15.05;8.30;;;;;;;31.45;33.20;99002.75;4994232;28;20475;-86
2022/08/31 10:24:32;;;;;;;20.92;9.50;;;;;;;31.46;32.80;99012.22;4994781;28;20029;-87
2022/08/31 10:27:16;;;;;;;13.13;9.40;;;;;;;31.46;32.57;99006.44;4994782;28;20408;-87
2022/08/31 10:30:07;;;;;;;14.43;8.00;;;;;;;31.41;32.56;98999.25;5005615;28;20556;-87
2022/08/31 10:33:20;;;;;;;21.15;9.05;;;;;;;31.82;32.29;98998.81;4986211;28;20033;-87
2022/08/31 10:35:56;;;;;;;12.18;7.65;;;;;;;31.88;30.97;98991.03;4981976;28;20462;-88
2022/08/31 10:38:44;;;;;;;12.40;8.13;;;;;;;31.98;30.93;99000.47;4994685;28;20072;-87
2022/08/31 10:41:10;;;;;;;12.88;7.70;;;;;;;31.96;30.42;99005.91;4994207;28;20044;-86
2022/08/31 10:43:45;;;;;;;13.63;7.00;;;;;;;31.84;29.63;99002.00;5011682;28;20492;-86
2022/08/31 10:46:12;;;;;;;10.40;7.05;;;;;;;32.08;30.76;99007.72;4985976;28;20025;-86
2022/08/31 10:48:42;;;;;;;9.48;7.35;;;;;;;32.15;30.16;98994.97;4975054;28;20112;-86
2022/08/31 10:51:21;;;;;;;12.32;7.30;;;;;;;32.32;29.34;98992.41;5006948;28;20033;-86
2022/08/31 10:53:55;;;;;;;11.98;6.72;;;;;;;32.37;29.70;98993.03;4987654;28;20133;-88
2022/08/31 10:56:24;;;;;;;13.85;7.35;;;;;;;32.50;29.94;98987.75;4993537;28;20090;-86
2022/08/31 10:59:23;;;;;;;10.43;6.63;;;;;;;32.40;29.52;98992.03;4994387;28;20026;-86
2022/08/31 11:01:58;;;;;;;11.00;7.35;;;;;;;32.47;30.63;98977.19;4994095;28;20088;-85
2022/08/31 11:04:33;;;;;;;11.27;7.78;;;;;;;32.62;30.01;98985.84;4993352;28;20065;-86
2022/08/31 11:08:00;;;;;;;10.75;8.00;;;;;;;32.72;30.65;98977.84;5010945;28;20017;-86
2022/08/31 11:10:52;;;;;;;15.00;8.48;;;;;;;32.51;30.22;98983.56;4917489;29;20128;-88
2022/08/31 11:13:46;;;;;;;14.75;7.80;;;;;;;32.67;29.91;98987.22;4990521;28;20425;-87
2022/08/31 11:16:31;;;;;;;12.65;7.95;;;;;;;32.94;29.61;98988.19;4993600;28;20037;-86
2022/08/31 11:19:06;;;;;;;12.52;7.70;;;;;;;32.85;30.47;98994.88;4995361;28;20136;-86
2022/08/31 11:21:56;;;;;;;20.30;9.30;;;;;;;32.76;29.71;98987.13;4997469;28;20029;-86
2022/08/31 11:24:39;;;;;;;10.77;7.25;;;;;;;33.26;29.21;98986.34;4996940;28;20428;-87
2022/08/31 11:27:43;;;;;;;12.43;7.57;;;;;;;33.22;28.99;98997.31;4997153;28;20036;-86
2022/08/31 11:30:31;;;;;;;44.65;10.23;;;;;;;32.73;29.48;98988.91;4919334;29;20031;-86
2022/08/31 11:33:06;;;;;;;10.80;7.10;;;;;;;32.96;29.20;98989.31;4991958;28;20053;-87
2022/08/31 11:35:48;;;;;;;12.00;7.68;;;;;;;33.07;29.26;98993.69;4995886;28;20424;-86
2022/08/31 11:38:48;;;;;;;12.38;7.75;;;;;;;33.15;29.41;98984.06;4997616;28;20079;-88
2022/08/31 11:41:48;;;;;;;24.65;8.60;;;;;;;33.06;29.04;98987.06;4995858;28;20488;-86
2022/08/31 11:44:58;;;;;;;14.30;8.00;;;;;;;32.71;28.67;98991.53;5013552;28;20034;-87
2022/08/31 11:47:27;;;;;;;20.85;7.68;;;;;;;32.55;30.25;98992.03;4976583;28;20044;-89
2022/08/31 11:50:01;;;;;;;14.40;7.55;;;;;;;32.75;29.68;98989.22;4994515;28;20037;-89
2022/08/31 11:52:37;;;;;;;12.68;8.05;;;;;;;32.89;29.10;98990.50;4994093;28;20085;-88